sensor_id;sensor_type;location;lat;lon;timestamp;P1;durP1;ratioP1;P2;durP2;ratioP2
26516;SDS011;14190;51.342;6.338;2024-03-22T00:02:21;12.50;;;4.25;;
26516;SDS011;14190;51.342;6.338;2024-03-22T00:04:48;10.93;;;3.50;;
26516;SDS011;14190;51.342;6.338;2024-03-22T00:07:16;10.10;;;3.00;;
26516;SDS011;14190;51.342;6.338;2024-03-22T00:09:43;8.75;;;4.53;;
26516;SDS011;14190;51.342;6.338;2024-03-22T00:12:10;10.40;;;5.00;;
26516;SDS011;14190;51.342;6.338;2024-03-22T00:14:38;15.83;;;5.70;;
26516;SDS011;14190;51.342;6.338;2024-03-22T00:17:05;10.40;;;5.15;;
26516;SDS011;14190;51.342;6.338;2024-03-22T00:19:32;12.47;;;4.60;;
26516;SDS011;14190;51.342;6.338;2024-03-22T00:22:00;14.35;;;5.62;;
26516;SDS011;14190;51.342;6.338;2024-03-22T00:24:27;9.93;;;4.22;;
26516;SDS011;14190;51.342;6.338;2024-03-22T00:26:54;11.55;;;4.47;;
26516;SDS011;14190;51.342;6.338;2024-03-22T00:29:22;14.33;;;5.37;;
26516;SDS011;14190;51.342;6.338;2024-03-22T00:31:49;9.90;;;4.75;;
26516;SDS011;14190;51.342;6.338;2024-03-22T00:34:16;10.48;;;3.90;;
26516;SDS011;14190;51.342;6.338;2024-03-22T00:36:44;9.83;;;3.90;;
26516;SDS011;14190;51.342;6.338;2024-03-22T00:39:12;16.87;;;4.83;;
26516;SDS011;14190;51.342;6.338;2024-03-22T00:41:39;9.68;;;3.70;;
26516;SDS011;14190;51.342;6.338;2024-03-22T00:44:07;12.58;;;4.80;;
26516;SDS011;14190;51.342;6.338;2024-03-22T00:46:34;15.35;;;4.58;;
26516;SDS011;14190;51.342;6.338;2024-03-22T00:49:02;12.80;;;4.85;;
26516;SDS011;14190;51.342;6.338;2024-03-22T00:51:29;10.45;;;3.12;;
26516;SDS011;14190;51.342;6.338;2024-03-22T00:53:57;7.30;;;4.00;;
26516;SDS011;14190;51.342;6.338;2024-03-22T00:56:24;16.75;;;5.42;;
26516;SDS011;14190;51.342;6.338;2024-03-22T00:58:51;11.73;;;4.17;;
26516;SDS011;14190;51.342;6.338;2024-03-22T01:01:19;21.40;;;5.83;;
26516;SDS011;14190;51.342;6.338;2024-03-22T01:03:46;11.05;;;4.33;;
26516;SDS011;14190;51.342;6.338;2024-03-22T01:06:13;13.18;;;4.67;;
26516;SDS011;14190;51.342;6.338;2024-03-22T01:08:41;16.45;;;5.67;;
26516;SDS011;14190;51.342;6.338;2024-03-22T01:11:08;10.60;;;4.10;;
26516;SDS011;14190;51.342;6.338;2024-03-22T01:13:35;15.83;;;7.28;;
26516;SDS011;14190;51.342;6.338;2024-03-22T01:16:03;13.00;;;6.10;;
26516;SDS011;14190;51.342;6.338;2024-03-22T01:18:30;13.95;;;6.50;;
26516;SDS011;14190;51.342;6.338;2024-03-22T01:20:58;19.60;;;5.72;;
26516;SDS011;14190;51.342;6.338;2024-03-22T01:23:25;10.85;;;5.03;;
26516;SDS011;14190;51.342;6.338;2024-03-22T01:25:52;10.00;;;4.78;;
26516;SDS011;14190;51.342;6.338;2024-03-22T01:28:20;13.00;;;4.80;;
26516;SDS011;14190;51.342;6.338;2024-03-22T01:30:47;12.80;;;6.15;;
26516;SDS011;14190;51.342;6.338;2024-03-22T01:33:15;12.85;;;4.75;;
26516;SDS011;14190;51.342;6.338;2024-03-22T01:35:42;10.10;;;4.85;;
26516;SDS011;14190;51.342;6.338;2024-03-22T01:38:09;12.05;;;4.30;;
26516;SDS011;14190;51.342;6.338;2024-03-22T01:40:37;8.98;;;4.30;;
26516;SDS011;14190;51.342;6.338;2024-03-22T01:43:04;12.40;;;4.45;;
26516;SDS011;14190;51.342;6.338;2024-03-22T01:45:32;19.82;;;6.85;;
26516;SDS011;14190;51.342;6.338;2024-03-22T01:48:00;12.82;;;4.30;;
26516;SDS011;14190;51.342;6.338;2024-03-22T01:50:27;10.78;;;5.50;;
26516;SDS011;14190;51.342;6.338;2024-03-22T01:52:55;8.50;;;5.03;;
26516;SDS011;14190;51.342;6.338;2024-03-22T01:55:22;16.15;;;4.80;;
26516;SDS011;14190;51.342;6.338;2024-03-22T01:57:50;10.38;;;5.22;;
26516;SDS011;14190;51.342;6.338;2024-03-22T02:07:12;17.80;;;6.35;;
26516;SDS011;14190;51.342;6.338;2024-03-22T02:09:39;20.70;;;7.72;;
26516;SDS011;14190;51.342;6.338;2024-03-22T02:12:06;13.13;;;5.70;;
26516;SDS011;14190;51.342;6.338;2024-03-22T02:14:34;18.67;;;6.83;;
26516;SDS011;14190;51.342;6.338;2024-03-22T02:17:01;15.35;;;7.37;;
26516;SDS011;14190;51.342;6.338;2024-03-22T02:19:28;17.62;;;6.67;;
26516;SDS011;14190;51.342;6.338;2024-03-22T02:21:56;10.63;;;6.70;;
26516;SDS011;14190;51.342;6.338;2024-03-22T02:24:23;21.05;;;5.17;;
26516;SDS011;14190;51.342;6.338;2024-03-22T02:26:50;17.85;;;7.37;;
26516;SDS011;14190;51.342;6.338;2024-03-22T02:29:18;18.80;;;7.30;;
26516;SDS011;14190;51.342;6.338;2024-03-22T02:31:45;13.90;;;6.37;;
26516;SDS011;14190;51.342;6.338;2024-03-22T02:34:12;15.15;;;5.87;;
26516;SDS011;14190;51.342;6.338;2024-03-22T02:36:40;11.95;;;6.70;;
26516;SDS011;14190;51.342;6.338;2024-03-22T02:39:07;24.50;;;6.45;;
26516;SDS011;14190;51.342;6.338;2024-03-22T02:41:34;14.68;;;6.00;;
26516;SDS011;14190;51.342;6.338;2024-03-22T02:44:02;14.20;;;5.92;;
26516;SDS011;14190;51.342;6.338;2024-03-22T02:46:30;16.48;;;6.83;;
26516;SDS011;14190;51.342;6.338;2024-03-22T02:48:57;18.77;;;6.05;;
26516;SDS011;14190;51.342;6.338;2024-03-22T02:51:24;20.27;;;6.50;;
26516;SDS011;14190;51.342;6.338;2024-03-22T02:53:52;21.00;;;6.45;;
26516;SDS011;14190;51.342;6.338;2024-03-22T02:56:19;13.55;;;5.15;;
26516;SDS011;14190;51.342;6.338;2024-03-22T02:58:46;18.80;;;6.70;;
26516;SDS011;14190;51.342;6.338;2024-03-22T03:01:16;12.40;;;6.05;;
26516;SDS011;14190;51.342;6.338;2024-03-22T03:03:43;14.18;;;4.15;;
26516;SDS011;14190;51.342;6.338;2024-03-22T03:06:10;22.07;;;8.43;;
26516;SDS011;14190;51.342;6.338;2024-03-22T03:08:39;19.85;;;6.65;;
26516;SDS011;14190;51.342;6.338;2024-03-22T03:11:07;13.62;;;6.55;;
26516;SDS011;14190;51.342;6.338;2024-03-22T03:13:34;11.80;;;7.00;;
26516;SDS011;14190;51.342;6.338;2024-03-22T03:16:02;19.67;;;6.62;;
26516;SDS011;14190;51.342;6.338;2024-03-22T03:18:29;17.73;;;6.72;;
26516;SDS011;14190;51.342;6.338;2024-03-22T03:20:57;19.02;;;5.45;;
26516;SDS011;14190;51.342;6.338;2024-03-22T03:23:24;17.23;;;6.37;;
26516;SDS011;14190;51.342;6.338;2024-03-22T03:25:51;10.68;;;5.35;;
26516;SDS011;14190;51.342;6.338;2024-03-22T03:28:19;13.25;;;5.80;;
26516;SDS011;14190;51.342;6.338;2024-03-22T03:30:47;17.32;;;7.65;;
26516;SDS011;14190;51.342;6.338;2024-03-22T03:33:14;16.90;;;6.42;;
26516;SDS011;14190;51.342;6.338;2024-03-22T03:35:45;7.85;;;3.92;;
26516;SDS011;14190;51.342;6.338;2024-03-22T03:38:11;11.35;;;4.35;;
26516;SDS011;14190;51.342;6.338;2024-03-22T03:40:38;20.23;;;5.72;;
26516;SDS011;14190;51.342;6.338;2024-03-22T03:43:05;12.90;;;5.15;;
26516;SDS011;14190;51.342;6.338;2024-03-22T03:45:35;10.25;;;5.12;;
26516;SDS011;14190;51.342;6.338;2024-03-22T03:48:02;12.28;;;5.62;;
26516;SDS011;14190;51.342;6.338;2024-03-22T03:50:29;11.60;;;3.95;;
26516;SDS011;14190;51.342;6.338;2024-03-22T03:52:56;14.38;;;4.72;;
26516;SDS011;14190;51.342;6.338;2024-03-22T03:55:24;14.55;;;5.15;;
26516;SDS011;14190;51.342;6.338;2024-03-22T03:57:51;15.70;;;5.08;;
26516;SDS011;14190;51.342;6.338;2024-03-22T04:00:19;12.58;;;4.83;;
26516;SDS011;14190;51.342;6.338;2024-03-22T04:02:48;14.28;;;7.58;;
26516;SDS011;14190;51.342;6.338;2024-03-22T04:05:17;15.03;;;4.00;;
26516;SDS011;14190;51.342;6.338;2024-03-22T04:07:48;7.78;;;3.58;;
26516;SDS011;14190;51.342;6.338;2024-03-22T04:12:44;13.18;;;6.92;;
26516;SDS011;14190;51.342;6.338;2024-03-22T04:15:11;8.28;;;4.83;;
26516;SDS011;14190;51.342;6.338;2024-03-22T04:17:39;18.25;;;6.08;;
26516;SDS011;14190;51.342;6.338;2024-03-22T04:20:06;12.70;;;4.95;;
26516;SDS011;14190;51.342;6.338;2024-03-22T04:22:35;14.13;;;5.55;;
26516;SDS011;14190;51.342;6.338;2024-03-22T04:25:02;14.98;;;5.17;;
26516;SDS011;14190;51.342;6.338;2024-03-22T04:27:29;13.05;;;5.53;;
26516;SDS011;14190;51.342;6.338;2024-03-22T04:29:57;9.00;;;4.20;;
26516;SDS011;14190;51.342;6.338;2024-03-22T04:32:25;11.53;;;5.53;;
26516;SDS011;14190;51.342;6.338;2024-03-22T04:34:52;10.25;;;4.60;;
26516;SDS011;14190;51.342;6.338;2024-03-22T04:37:21;14.47;;;5.45;;
26516;SDS011;14190;51.342;6.338;2024-03-22T04:39:48;13.35;;;5.60;;
26516;SDS011;14190;51.342;6.338;2024-03-22T04:42:16;6.17;;;4.42;;
26516;SDS011;14190;51.342;6.338;2024-03-22T04:44:43;18.40;;;5.12;;
26516;SDS011;14190;51.342;6.338;2024-03-22T04:47:10;22.22;;;6.92;;
26516;SDS011;14190;51.342;6.338;2024-03-22T04:49:38;12.60;;;5.33;;
26516;SDS011;14190;51.342;6.338;2024-03-22T04:52:05;17.85;;;5.75;;
26516;SDS011;14190;51.342;6.338;2024-03-22T04:54:33;7.15;;;5.35;;
26516;SDS011;14190;51.342;6.338;2024-03-22T04:57:00;8.93;;;5.12;;
26516;SDS011;14190;51.342;6.338;2024-03-22T04:59:27;12.07;;;4.37;;
26516;SDS011;14190;51.342;6.338;2024-03-22T05:01:55;9.90;;;3.87;;
26516;SDS011;14190;51.342;6.338;2024-03-22T05:04:22;13.45;;;4.65;;
26516;SDS011;14190;51.342;6.338;2024-03-22T05:06:50;9.80;;;4.60;;
26516;SDS011;14190;51.342;6.338;2024-03-22T05:09:17;14.75;;;5.53;;
26516;SDS011;14190;51.342;6.338;2024-03-22T05:11:45;9.30;;;5.53;;
26516;SDS011;14190;51.342;6.338;2024-03-22T05:14:14;14.75;;;5.15;;
26516;SDS011;14190;51.342;6.338;2024-03-22T05:16:41;15.18;;;6.20;;
26516;SDS011;14190;51.342;6.338;2024-03-22T05:19:08;11.93;;;5.95;;
26516;SDS011;14190;51.342;6.338;2024-03-22T05:21:36;11.60;;;4.33;;
26516;SDS011;14190;51.342;6.338;2024-03-22T05:24:03;10.93;;;5.33;;
26516;SDS011;14190;51.342;6.338;2024-03-22T05:26:31;19.30;;;5.42;;
26516;SDS011;14190;51.342;6.338;2024-03-22T05:29:00;5.45;;;3.67;;
26516;SDS011;14190;51.342;6.338;2024-03-22T05:31:27;14.23;;;5.67;;
26516;SDS011;14190;51.342;6.338;2024-03-22T05:33:54;11.68;;;5.45;;
26516;SDS011;14190;51.342;6.338;2024-03-22T05:36:22;8.35;;;4.35;;
26516;SDS011;14190;51.342;6.338;2024-03-22T05:38:49;12.07;;;4.85;;
26516;SDS011;14190;51.342;6.338;2024-03-22T05:41:17;8.63;;;4.30;;
26516;SDS011;14190;51.342;6.338;2024-03-22T05:43:44;11.73;;;4.22;;
26516;SDS011;14190;51.342;6.338;2024-03-22T05:46:11;8.73;;;3.47;;
26516;SDS011;14190;51.342;6.338;2024-03-22T05:48:39;13.58;;;5.78;;
26516;SDS011;14190;51.342;6.338;2024-03-22T05:51:06;12.65;;;4.50;;
26516;SDS011;14190;51.342;6.338;2024-03-22T05:53:34;16.80;;;5.03;;
26516;SDS011;14190;51.342;6.338;2024-03-22T05:56:01;10.65;;;4.60;;
26516;SDS011;14190;51.342;6.338;2024-03-22T05:58:28;12.65;;;4.92;;
26516;SDS011;14190;51.342;6.338;2024-03-22T06:00:56;14.55;;;4.75;;
26516;SDS011;14190;51.342;6.338;2024-03-22T06:03:24;9.95;;;4.72;;
26516;SDS011;14190;51.342;6.338;2024-03-22T06:05:52;11.33;;;4.35;;
26516;SDS011;14190;51.342;6.338;2024-03-22T06:08:21;8.75;;;4.40;;
26516;SDS011;14190;51.342;6.338;2024-03-22T06:10:49;12.68;;;5.83;;
26516;SDS011;14190;51.342;6.338;2024-03-22T06:13:17;10.75;;;4.87;;
26516;SDS011;14190;51.342;6.338;2024-03-22T06:15:44;9.83;;;3.52;;
26516;SDS011;14190;51.342;6.338;2024-03-22T06:18:13;8.10;;;4.15;;
26516;SDS011;14190;51.342;6.338;2024-03-22T06:20:40;13.25;;;5.72;;
26516;SDS011;14190;51.342;6.338;2024-03-22T06:23:08;7.92;;;4.00;;
26516;SDS011;14190;51.342;6.338;2024-03-22T06:25:35;15.28;;;6.10;;
26516;SDS011;14190;51.342;6.338;2024-03-22T06:28:03;9.10;;;3.92;;
26516;SDS011;14190;51.342;6.338;2024-03-22T06:30:30;8.18;;;4.12;;
26516;SDS011;14190;51.342;6.338;2024-03-22T06:32:58;9.15;;;3.95;;
26516;SDS011;14190;51.342;6.338;2024-03-22T06:35:25;8.98;;;4.65;;
26516;SDS011;14190;51.342;6.338;2024-03-22T06:37:52;9.05;;;4.87;;
26516;SDS011;14190;51.342;6.338;2024-03-22T06:40:20;8.43;;;4.03;;
26516;SDS011;14190;51.342;6.338;2024-03-22T06:42:47;8.75;;;3.60;;
26516;SDS011;14190;51.342;6.338;2024-03-22T06:45:19;12.78;;;4.35;;
26516;SDS011;14190;51.342;6.338;2024-03-22T06:47:44;7.20;;;3.75;;
26516;SDS011;14190;51.342;6.338;2024-03-22T06:50:11;18.75;;;5.90;;
26516;SDS011;14190;51.342;6.338;2024-03-22T06:52:38;11.95;;;4.78;;
26516;SDS011;14190;51.342;6.338;2024-03-22T06:55:06;11.12;;;5.20;;
26516;SDS011;14190;51.342;6.338;2024-03-22T06:57:33;9.50;;;3.77;;
26516;SDS011;14190;51.342;6.338;2024-03-22T07:00:01;8.08;;;3.50;;
26516;SDS011;14190;51.342;6.338;2024-03-22T07:02:28;3.80;;;2.60;;
26516;SDS011;14190;51.342;6.338;2024-03-22T07:04:56;8.18;;;3.00;;
26516;SDS011;14190;51.342;6.338;2024-03-22T07:07:23;9.83;;;3.80;;
26516;SDS011;14190;51.342;6.338;2024-03-22T07:09:50;7.35;;;2.20;;
26516;SDS011;14190;51.342;6.338;2024-03-22T07:12:18;11.45;;;3.50;;
26516;SDS011;14190;51.342;6.338;2024-03-22T07:14:45;10.60;;;4.92;;
26516;SDS011;14190;51.342;6.338;2024-03-22T07:17:12;7.70;;;3.40;;
26516;SDS011;14190;51.342;6.338;2024-03-22T07:19:41;8.38;;;4.00;;
26516;SDS011;14190;51.342;6.338;2024-03-22T07:22:09;7.00;;;3.33;;
26516;SDS011;14190;51.342;6.338;2024-03-22T07:24:36;7.33;;;3.37;;
26516;SDS011;14190;51.342;6.338;2024-03-22T07:27:04;7.12;;;4.22;;
26516;SDS011;14190;51.342;6.338;2024-03-22T07:29:31;8.95;;;3.42;;
26516;SDS011;14190;51.342;6.338;2024-03-22T07:31:58;10.28;;;2.80;;
26516;SDS011;14190;51.342;6.338;2024-03-22T07:34:26;7.55;;;3.60;;
26516;SDS011;14190;51.342;6.338;2024-03-22T07:36:53;7.58;;;2.80;;
26516;SDS011;14190;51.342;6.338;2024-03-22T07:39:20;6.92;;;3.25;;
26516;SDS011;14190;51.342;6.338;2024-03-22T07:41:49;6.67;;;3.15;;
26516;SDS011;14190;51.342;6.338;2024-03-22T07:44:16;5.58;;;1.92;;
26516;SDS011;14190;51.342;6.338;2024-03-22T07:46:43;7.10;;;2.47;;
26516;SDS011;14190;51.342;6.338;2024-03-22T07:49:12;5.75;;;3.47;;
26516;SDS011;14190;51.342;6.338;2024-03-22T07:51:39;2.42;;;1.85;;
26516;SDS011;14190;51.342;6.338;2024-03-22T07:54:06;5.30;;;2.42;;
26516;SDS011;14190;51.342;6.338;2024-03-22T07:56:34;7.47;;;3.60;;
26516;SDS011;14190;51.342;6.338;2024-03-22T07:59:01;7.58;;;2.87;;
26516;SDS011;14190;51.342;6.338;2024-03-22T08:01:28;3.65;;;2.10;;
26516;SDS011;14190;51.342;6.338;2024-03-22T08:03:56;5.35;;;2.92;;
26516;SDS011;14190;51.342;6.338;2024-03-22T08:06:28;7.87;;;3.02;;
26516;SDS011;14190;51.342;6.338;2024-03-22T08:08:52;3.75;;;2.58;;
26516;SDS011;14190;51.342;6.338;2024-03-22T08:11:20;8.23;;;2.33;;
26516;SDS011;14190;51.342;6.338;2024-03-22T08:13:47;4.55;;;2.45;;
26516;SDS011;14190;51.342;6.338;2024-03-22T08:16:14;4.87;;;2.98;;
26516;SDS011;14190;51.342;6.338;2024-03-22T08:18:42;9.30;;;3.55;;
26516;SDS011;14190;51.342;6.338;2024-03-22T08:21:09;11.63;;;3.08;;
26516;SDS011;14190;51.342;6.338;2024-03-22T08:23:36;5.65;;;2.30;;
26516;SDS011;14190;51.342;6.338;2024-03-22T08:26:04;6.35;;;2.95;;
26516;SDS011;14190;51.342;6.338;2024-03-22T08:28:31;4.47;;;3.17;;
26516;SDS011;14190;51.342;6.338;2024-03-22T08:31:03;6.17;;;1.85;;
26516;SDS011;14190;51.342;6.338;2024-03-22T08:33:28;3.87;;;2.08;;
26516;SDS011;14190;51.342;6.338;2024-03-22T08:35:55;7.25;;;2.65;;
26516;SDS011;14190;51.342;6.338;2024-03-22T08:38:22;5.87;;;2.17;;
26516;SDS011;14190;51.342;6.338;2024-03-22T08:40:50;6.45;;;3.58;;
26516;SDS011;14190;51.342;6.338;2024-03-22T08:43:18;9.98;;;3.37;;
26516;SDS011;14190;51.342;6.338;2024-03-22T08:45:45;7.45;;;3.05;;
26516;SDS011;14190;51.342;6.338;2024-03-22T08:48:13;4.15;;;2.15;;
26516;SDS011;14190;51.342;6.338;2024-03-22T08:50:43;9.10;;;3.77;;
26516;SDS011;14190;51.342;6.338;2024-03-22T08:53:11;7.65;;;3.20;;
26516;SDS011;14190;51.342;6.338;2024-03-22T08:55:38;5.05;;;2.90;;
26516;SDS011;14190;51.342;6.338;2024-03-22T08:58:05;5.37;;;2.67;;
26516;SDS011;14190;51.342;6.338;2024-03-22T09:00:33;6.65;;;2.87;;
26516;SDS011;14190;51.342;6.338;2024-03-22T09:03:01;7.72;;;2.67;;
26516;SDS011;14190;51.342;6.338;2024-03-22T09:05:28;8.95;;;4.80;;
26516;SDS011;14190;51.342;6.338;2024-03-22T09:07:55;4.53;;;1.95;;
26516;SDS011;14190;51.342;6.338;2024-03-22T09:10:23;3.90;;;2.62;;
26516;SDS011;14190;51.342;6.338;2024-03-22T09:12:51;9.50;;;2.60;;
26516;SDS011;14190;51.342;6.338;2024-03-22T09:15:18;21.55;;;1.85;;
26516;SDS011;14190;51.342;6.338;2024-03-22T09:17:45;9.20;;;2.27;;
26516;SDS011;14190;51.342;6.338;2024-03-22T09:20:13;4.42;;;2.30;;
26516;SDS011;14190;51.342;6.338;2024-03-22T09:22:40;7.55;;;2.12;;
26516;SDS011;14190;51.342;6.338;2024-03-22T09:25:07;4.80;;;2.10;;
26516;SDS011;14190;51.342;6.338;2024-03-22T09:27:35;3.80;;;2.20;;
26516;SDS011;14190;51.342;6.338;2024-03-22T09:30:05;5.15;;;2.37;;
26516;SDS011;14190;51.342;6.338;2024-03-22T09:32:33;6.28;;;2.08;;
26516;SDS011;14190;51.342;6.338;2024-03-22T09:35:00;5.72;;;2.40;;
26516;SDS011;14190;51.342;6.338;2024-03-22T09:37:27;4.78;;;2.05;;
26516;SDS011;14190;51.342;6.338;2024-03-22T09:39:55;3.35;;;2.02;;
26516;SDS011;14190;51.342;6.338;2024-03-22T09:42:22;7.28;;;2.70;;
26516;SDS011;14190;51.342;6.338;2024-03-22T09:44:51;9.53;;;3.13;;
26516;SDS011;14190;51.342;6.338;2024-03-22T09:47:22;2.02;;;1.55;;
26516;SDS011;14190;51.342;6.338;2024-03-22T09:49:50;2.72;;;1.85;;
26516;SDS011;14190;51.342;6.338;2024-03-22T09:52:18;2.55;;;1.60;;
26516;SDS011;14190;51.342;6.338;2024-03-22T09:54:47;5.35;;;2.20;;
26516;SDS011;14190;51.342;6.338;2024-03-22T09:57:16;4.10;;;1.90;;
26516;SDS011;14190;51.342;6.338;2024-03-22T09:59:45;3.40;;;1.65;;
26516;SDS011;14190;51.342;6.338;2024-03-22T10:02:13;3.20;;;1.80;;
26516;SDS011;14190;51.342;6.338;2024-03-22T10:04:40;4.53;;;2.52;;
26516;SDS011;14190;51.342;6.338;2024-03-22T10:07:08;6.60;;;1.42;;
26516;SDS011;14190;51.342;6.338;2024-03-22T10:09:36;5.35;;;2.02;;
26516;SDS011;14190;51.342;6.338;2024-03-22T10:12:04;2.22;;;1.60;;
26516;SDS011;14190;51.342;6.338;2024-03-22T10:14:32;6.87;;;1.92;;
26516;SDS011;14190;51.342;6.338;2024-03-22T10:17:00;7.40;;;3.12;;
26516;SDS011;14190;51.342;6.338;2024-03-22T10:19:27;4.37;;;1.55;;
26516;SDS011;14190;51.342;6.338;2024-03-22T10:22:00;3.47;;;1.82;;
26516;SDS011;14190;51.342;6.338;2024-03-22T10:24:31;4.55;;;2.02;;
26516;SDS011;14190;51.342;6.338;2024-03-22T10:26:59;3.25;;;1.62;;
26516;SDS011;14190;51.342;6.338;2024-03-22T10:29:27;5.70;;;2.25;;
26516;SDS011;14190;51.342;6.338;2024-03-22T10:31:55;6.17;;;1.70;;
26516;SDS011;14190;51.342;6.338;2024-03-22T10:34:22;3.12;;;1.55;;
26516;SDS011;14190;51.342;6.338;2024-03-22T10:36:51;3.20;;;1.47;;
26516;SDS011;14190;51.342;6.338;2024-03-22T10:39:18;3.15;;;1.80;;
26516;SDS011;14190;51.342;6.338;2024-03-22T10:41:46;6.35;;;2.33;;
26516;SDS011;14190;51.342;6.338;2024-03-22T10:44:14;6.75;;;2.62;;
26516;SDS011;14190;51.342;6.338;2024-03-22T10:46:47;5.08;;;2.00;;
26516;SDS011;14190;51.342;6.338;2024-03-22T10:49:21;4.35;;;1.60;;
26516;SDS011;14190;51.342;6.338;2024-03-22T10:51:47;4.75;;;2.20;;
26516;SDS011;14190;51.342;6.338;2024-03-22T10:54:18;5.72;;;1.72;;
26516;SDS011;14190;51.342;6.338;2024-03-22T10:56:44;7.83;;;2.08;;
26516;SDS011;14190;51.342;6.338;2024-03-22T10:59:18;4.60;;;2.45;;
26516;SDS011;14190;51.342;6.338;2024-03-22T11:01:46;8.98;;;2.22;;
26516;SDS011;14190;51.342;6.338;2024-03-22T11:04:15;5.35;;;2.15;;
26516;SDS011;14190;51.342;6.338;2024-03-22T11:06:47;5.37;;;2.47;;
26516;SDS011;14190;51.342;6.338;2024-03-22T11:09:11;3.55;;;1.98;;
26516;SDS011;14190;51.342;6.338;2024-03-22T11:11:41;4.67;;;1.87;;
26516;SDS011;14190;51.342;6.338;2024-03-22T11:14:08;4.78;;;1.82;;
26516;SDS011;14190;51.342;6.338;2024-03-22T11:16:36;5.17;;;2.45;;
26516;SDS011;14190;51.342;6.338;2024-03-22T11:19:04;3.80;;;2.27;;
26516;SDS011;14190;51.342;6.338;2024-03-22T11:21:34;5.90;;;2.02;;
26516;SDS011;14190;51.342;6.338;2024-03-22T11:24:01;3.62;;;1.77;;
26516;SDS011;14190;51.342;6.338;2024-03-22T11:26:29;4.92;;;3.12;;
26516;SDS011;14190;51.342;6.338;2024-03-22T11:29:01;3.22;;;1.72;;
26516;SDS011;14190;51.342;6.338;2024-03-22T11:31:26;4.53;;;2.17;;
26516;SDS011;14190;51.342;6.338;2024-03-22T11:33:56;2.92;;;1.85;;
26516;SDS011;14190;51.342;6.338;2024-03-22T11:36:24;5.65;;;2.50;;
26516;SDS011;14190;51.342;6.338;2024-03-22T11:38:51;6.03;;;3.22;;
26516;SDS011;14190;51.342;6.338;2024-03-22T11:41:21;4.45;;;2.00;;
26516;SDS011;14190;51.342;6.338;2024-03-22T11:43:49;8.88;;;2.60;;
26516;SDS011;14190;51.342;6.338;2024-03-22T11:46:17;6.03;;;2.62;;
26516;SDS011;14190;51.342;6.338;2024-03-22T11:48:45;3.70;;;1.55;;
26516;SDS011;14190;51.342;6.338;2024-03-22T11:51:12;2.37;;;2.12;;
26516;SDS011;14190;51.342;6.338;2024-03-22T11:53:48;6.50;;;2.25;;
26516;SDS011;14190;51.342;6.338;2024-03-22T11:56:08;3.58;;;2.27;;
26516;SDS011;14190;51.342;6.338;2024-03-22T11:58:36;4.12;;;2.33;;
26516;SDS011;14190;51.342;6.338;2024-03-22T12:01:03;4.42;;;2.22;;
26516;SDS011;14190;51.342;6.338;2024-03-22T12:03:30;4.78;;;2.98;;
26516;SDS011;14190;51.342;6.338;2024-03-22T12:05:58;5.62;;;2.33;;
26516;SDS011;14190;51.342;6.338;2024-03-22T12:08:25;6.28;;;3.12;;
26516;SDS011;14190;51.342;6.338;2024-03-22T12:10:52;5.12;;;2.17;;
26516;SDS011;14190;51.342;6.338;2024-03-22T12:13:20;4.55;;;2.60;;
26516;SDS011;14190;51.342;6.338;2024-03-22T12:15:47;2.75;;;1.50;;
26516;SDS011;14190;51.342;6.338;2024-03-22T12:18:15;5.65;;;2.75;;
26516;SDS011;14190;51.342;6.338;2024-03-22T12:20:43;4.05;;;2.60;;
26516;SDS011;14190;51.342;6.338;2024-03-22T12:23:10;3.95;;;2.05;;
26516;SDS011;14190;51.342;6.338;2024-03-22T12:25:37;7.58;;;3.40;;
26516;SDS011;14190;51.342;6.338;2024-03-22T12:28:05;4.17;;;1.95;;
26516;SDS011;14190;51.342;6.338;2024-03-22T12:30:32;4.35;;;1.52;;
26516;SDS011;14190;51.342;6.338;2024-03-22T12:33:00;5.72;;;2.10;;
26516;SDS011;14190;51.342;6.338;2024-03-22T12:35:28;6.25;;;1.90;;
26516;SDS011;14190;51.342;6.338;2024-03-22T12:37:57;4.58;;;1.90;;
26516;SDS011;14190;51.342;6.338;2024-03-22T12:40:24;4.87;;;2.27;;
26516;SDS011;14190;51.342;6.338;2024-03-22T12:42:51;4.30;;;1.95;;
26516;SDS011;14190;51.342;6.338;2024-03-22T12:45:19;5.80;;;2.20;;
26516;SDS011;14190;51.342;6.338;2024-03-22T12:47:46;4.15;;;2.33;;
26516;SDS011;14190;51.342;6.338;2024-03-22T12:50:13;5.25;;;3.25;;
26516;SDS011;14190;51.342;6.338;2024-03-22T12:52:41;5.45;;;2.90;;
26516;SDS011;14190;51.342;6.338;2024-03-22T12:55:10;7.53;;;2.12;;
26516;SDS011;14190;51.342;6.338;2024-03-22T12:57:38;5.00;;;2.45;;
26516;SDS011;14190;51.342;6.338;2024-03-22T13:00:06;8.10;;;2.20;;
26516;SDS011;14190;51.342;6.338;2024-03-22T13:02:35;10.15;;;3.00;;
26516;SDS011;14190;51.342;6.338;2024-03-22T13:05:02;4.42;;;2.33;;
26516;SDS011;14190;51.342;6.338;2024-03-22T13:07:30;8.38;;;2.83;;
26516;SDS011;14190;51.342;6.338;2024-03-22T13:09:57;6.67;;;3.27;;
26516;SDS011;14190;51.342;6.338;2024-03-22T13:12:26;3.83;;;2.12;;
26516;SDS011;14190;51.342;6.338;2024-03-22T13:14:55;4.87;;;1.98;;
26516;SDS011;14190;51.342;6.338;2024-03-22T13:17:23;3.25;;;2.67;;
26516;SDS011;14190;51.342;6.338;2024-03-22T13:19:50;6.97;;;3.45;;
26516;SDS011;14190;51.342;6.338;2024-03-22T13:22:17;6.33;;;3.25;;
26516;SDS011;14190;51.342;6.338;2024-03-22T13:24:45;5.15;;;2.98;;
26516;SDS011;14190;51.342;6.338;2024-03-22T13:27:13;6.17;;;2.22;;
26516;SDS011;14190;51.342;6.338;2024-03-22T13:29:40;4.33;;;2.80;;
26516;SDS011;14190;51.342;6.338;2024-03-22T13:32:08;2.50;;;1.67;;
26516;SDS011;14190;51.342;6.338;2024-03-22T13:34:35;9.95;;;3.02;;
26516;SDS011;14190;51.342;6.338;2024-03-22T13:37:03;4.17;;;2.65;;
26516;SDS011;14190;51.342;6.338;2024-03-22T13:39:30;4.33;;;2.37;;
26516;SDS011;14190;51.342;6.338;2024-03-22T13:41:58;4.78;;;1.82;;
26516;SDS011;14190;51.342;6.338;2024-03-22T13:44:25;5.75;;;2.87;;
26516;SDS011;14190;51.342;6.338;2024-03-22T13:46:53;4.20;;;2.35;;
26516;SDS011;14190;51.342;6.338;2024-03-22T13:49:21;7.25;;;2.50;;
26516;SDS011;14190;51.342;6.338;2024-03-22T13:51:49;25.97;;;2.55;;
26516;SDS011;14190;51.342;6.338;2024-03-22T13:54:17;5.67;;;2.83;;
26516;SDS011;14190;51.342;6.338;2024-03-22T13:56:44;4.08;;;2.42;;
26516;SDS011;14190;51.342;6.338;2024-03-22T13:59:11;6.87;;;2.45;;
26516;SDS011;14190;51.342;6.338;2024-03-22T14:01:40;6.58;;;2.47;;
26516;SDS011;14190;51.342;6.338;2024-03-22T14:04:09;6.87;;;2.72;;
26516;SDS011;14190;51.342;6.338;2024-03-22T14:06:37;6.55;;;3.55;;
26516;SDS011;14190;51.342;6.338;2024-03-22T14:09:05;3.80;;;2.00;;
26516;SDS011;14190;51.342;6.338;2024-03-22T14:11:34;9.75;;;4.60;;
26516;SDS011;14190;51.342;6.338;2024-03-22T14:14:01;5.85;;;1.85;;
26516;SDS011;14190;51.342;6.338;2024-03-22T14:16:29;6.67;;;3.20;;
26516;SDS011;14190;51.342;6.338;2024-03-22T14:18:56;3.00;;;2.25;;
26516;SDS011;14190;51.342;6.338;2024-03-22T14:21:24;3.70;;;2.25;;
26516;SDS011;14190;51.342;6.338;2024-03-22T14:23:52;5.58;;;2.58;;
26516;SDS011;14190;51.342;6.338;2024-03-22T14:26:20;6.42;;;3.15;;
26516;SDS011;14190;51.342;6.338;2024-03-22T14:28:47;10.38;;;2.98;;
26516;SDS011;14190;51.342;6.338;2024-03-22T14:31:16;3.25;;;1.70;;
26516;SDS011;14190;51.342;6.338;2024-03-22T14:33:43;5.10;;;2.55;;
26516;SDS011;14190;51.342;6.338;2024-03-22T14:36:11;5.15;;;2.70;;
26516;SDS011;14190;51.342;6.338;2024-03-22T14:38:39;7.20;;;2.52;;
26516;SDS011;14190;51.342;6.338;2024-03-22T14:41:07;6.75;;;2.85;;
26516;SDS011;14190;51.342;6.338;2024-03-22T14:43:34;9.25;;;3.42;;
26516;SDS011;14190;51.342;6.338;2024-03-22T14:46:01;6.47;;;3.25;;
26516;SDS011;14190;51.342;6.338;2024-03-22T14:48:29;8.38;;;3.50;;
26516;SDS011;14190;51.342;6.338;2024-03-22T14:50:57;4.97;;;2.42;;
26516;SDS011;14190;51.342;6.338;2024-03-22T14:53:24;6.50;;;2.65;;
26516;SDS011;14190;51.342;6.338;2024-03-22T14:55:57;5.53;;;2.98;;